Lake, Louisiana
Current Conditions -  °F | °C
As of 9:35 PM on Friday 31 Oct 2014 (Local Time) from KL38 Reporting Station
Clear Clear  
Wind Chill: 61°   Ceiling: Unl
Heat Index: 61°   Visibility: 10mi
Dew Point: 47°   Wind: 8mph
Humidity: 60%   Direction: 350°N
Pressure: 30.19"   Gusts: 18mph
Location:  30.3065°N, 90.9499°W
Report Text: KL38 010235Z AUTO 35007G16KT 10SM CLR 16/08 A3019 RMK AO2 T01600082
Loading
Personal Weather Stations






























Interactive Weather Map
Tropical Storm Tracking
New forecast layout! Learn more

10-Day Weather Forecast

Advertisements
Track Severe Weather on mobile